Fdny Mo 34 — WDG3986 — position and weather

sailwx.info

Track history (hours):
 
Tides and Currents Weather Stations Pressure Air Temp Water Temp Dewpoint Dewpoint Depression Visibility Wind Speed Wind Dir Waves Ship Positions

Fdny Mo 34

Owner: NEW YORK CITY FIRE DEPT, BROOKLYN, NY. More information available from US FCC via Universal Licensing System.

Last reported at 2018-Aug-16 08:09 UTC. Time now 2018-Aug-16 08:45 UTC.
Position N 40°38' W 074°04'.

Length 11 m; draft 1 m.

Type: Law enforcement. MMSI: 367531750.

Date/timePositionNaut miles runAvg speedWind from/ knotsBaromVisibWave heightAir tempDewpointWater temp
2018-Aug-16 08:09N 40°38' W 074°04'0 0.0
2018-Aug-16 07:49N 40°38' W 074°04'0 0.0
2018-Aug-16 07:30N 40°38' W 074°04'0 0.0
2018-Aug-16 07:00N 40°38' W 074°04'0 0.0
2018-Aug-16 06:30N 40°38' W 074°04'0 0.0
2018-Aug-16 05:54N 40°38' W 074°04'0 0.0
2018-Aug-16 05:30N 40°38' W 074°04'0 0.0
2018-Aug-16 04:57N 40°38' W 074°04'0 0.0
2018-Aug-16 04:30N 40°38' W 074°04'0 0.0
2018-Aug-16 04:00N 40°38' W 074°04'0 0.0
2018-Aug-16 03:30N 40°38' W 074°04'0 0.0
2018-Aug-16 03:00N 40°38' W 074°04'0 0.0
2018-Aug-16 02:30N 40°38' W 074°04'0 0.0
2018-Aug-16 02:00N 40°38' W 074°04'0 0.0
2018-Aug-16 01:27N 40°38' W 074°04'0 0.0
2018-Aug-16 01:00N 40°38' W 074°04'0 0.0
2018-Aug-16 00:09N 40°38' W 074°04'0 0.0
2018-Aug-16 00:00N 40°38' W 074°04'0 0.0
2018-Aug-15 22:07N 40°38' W 074°04'0 0.0
2018-Aug-15 20:59N 40°38' W 074°04'0 0.0
2018-Aug-15 19:15N 40°38' W 074°04'0 1.1
2018-Aug-15 18:48N 40°38' W 074°04'514.6
2018-Aug-15 18:29N 40°43' W 074°03'1 1.7
2018-Aug-15 17:44N 40°43' W 074°01'1 4.1
2018-Aug-15 17:30N 40°42' W 074°01'5 8.6
2018-Aug-15 16:54N 40°38' W 074°04'0 0.0
2018-Aug-15 16:21N 40°38' W 074°04'0 0.0
2018-Aug-15 15:15N 40°38' W 074°04'0 0.0
2018-Aug-15 15:00N 40°38' W 074°04'0 0.0
2018-Aug-15 14:03N 40°38' W 074°04'0 0.1
2018-Aug-15 13:56N 40°38' W 074°04'0 0.0
2018-Aug-15 12:51N 40°38' W 074°04'2 1.7
2018-Aug-15 11:45N 40°36' W 074°03'2 1.0
2018-Aug-15 09:53N 40°38' W 074°04'0 0.0
2018-Aug-15 09:30N 40°38' W 074°04'0 0.0
2018-Aug-15 08:57N 40°38' W 074°04'0 0.0
2018-Aug-15 08:22N 40°38' W 074°04'0 0.0
2018-Aug-15 07:57N 40°38' W 074°04'0 0.0
2018-Aug-15 07:30N 40°38' W 074°04'0 0.0
2018-Aug-15 07:00N 40°38' W 074°04'0 0.0
2018-Aug-15 06:30N 40°38' W 074°04'0 0.0
2018-Aug-15 06:00N 40°38' W 074°04'0 0.0
2018-Aug-15 05:30N 40°38' W 074°04'0 0.0
2018-Aug-15 05:00N 40°38' W 074°04'0 0.0
2018-Aug-15 04:30N 40°38' W 074°04'0 0.0
2018-Aug-15 04:00N 40°38' W 074°04'0 0.0
2018-Aug-15 03:30N 40°38' W 074°04'0 0.0
2018-Aug-15 03:00N 40°38' W 074°04'0 0.0
2018-Aug-15 02:30N 40°38' W 074°04'0 0.0
2018-Aug-15 02:00N 40°38' W 074°04'0 0.0
2018-Aug-15 01:29N 40°38' W 074°04'0 0.0
2018-Aug-15 00:54N 40°38' W 074°04'0 0.0
2018-Aug-15 00:27N 40°38' W 074°04'0 0.0
2018-Aug-14 23:58N 40°38' W 074°04'0 0.0
2018-Aug-14 23:30N 40°38' W 074°04'0 0.0
2018-Aug-14 22:54N 40°38' W 074°04'0 0.0
2018-Aug-14 22:16N 40°38' W 074°04'0 0.0
2018-Aug-14 21:59N 40°38' W 074°04'0 0.0
2018-Aug-14 21:28N 40°38' W 074°04'0 0.0
2018-Aug-14 21:00N 40°38' W 074°04'0 0.0
2018-Aug-14 19:57N 40°38' W 074°04'0 0.0
2018-Aug-14 19:22N 40°38' W 074°04'0 0.0
2018-Aug-14 18:57N 40°38' W 074°04'0 0.0
2018-Aug-14 18:30N 40°38' W 074°04'0 0.0
2018-Aug-14 18:00N 40°38' W 074°04'0 0.0
2018-Aug-14 17:29N 40°38' W 074°04'0 0.0
2018-Aug-14 17:00N 40°38' W 074°04'0 0.0
2018-Aug-14 16:30N 40°38' W 074°04'0 0.0
2018-Aug-14 16:00N 40°38' W 074°04'0 0.0
2018-Aug-14 15:29N 40°38' W 074°04'0 0.0
2018-Aug-14 15:00N 40°38' W 074°04'0 0.0
2018-Aug-14 14:29N 40°38' W 074°04'0 0.0
2018-Aug-14 14:00N 40°38' W 074°04'0 0.0
2018-Aug-14 13:30N 40°38' W 074°04'0 0.0
2018-Aug-14 13:00N 40°38' W 074°04'0 0.0
2018-Aug-14 12:30N 40°38' W 074°04'0 0.0
2018-Aug-14 12:00N 40°38' W 074°04'0 0.0
2018-Aug-14 11:29N 40°38' W 074°04'0 0.0
2018-Aug-14 11:00N 40°38' W 074°04'0 0.0
2018-Aug-14 10:29N 40°38' W 074°04'0 0.0
2018-Aug-14 07:31N 40°38' W 074°04'0 0.0
2018-Aug-14 07:30N 40°38' W 074°04'0 0.0
2018-Aug-14 07:00N 40°38' W 074°04'0 0.0
2018-Aug-14 06:30N 40°38' W 074°04'0 0.0
2018-Aug-14 06:00N 40°38' W 074°04'0 0.0
2018-Aug-14 05:30N 40°38' W 074°04'0 0.0
2018-Aug-14 05:00N 40°38' W 074°04'0 0.0
2018-Aug-14 04:30N 40°38' W 074°04'0 0.0
2018-Aug-14 04:00N 40°38' W 074°04'0 0.0
2018-Aug-14 03:30N 40°38' W 074°04'0 0.0
2018-Aug-14 03:00N 40°38' W 074°04'0 0.0
2018-Aug-14 02:30N 40°38' W 074°04'0 0.0
2018-Aug-14 02:00N 40°38' W 074°04'0 0.0
2018-Aug-14 01:30N 40°38' W 074°04'0 0.0
2018-Aug-14 01:00N 40°38' W 074°04'0 0.0
2018-Aug-14 00:30N 40°38' W 074°04'0 0.0
2018-Aug-14 00:00N 40°38' W 074°04'0 0.0
2018-Aug-13 23:30N 40°38' W 074°04'0 0.0
2018-Aug-13 22:57N 40°38' W 074°04'0 0.0
2018-Aug-13 22:30N 40°38' W 074°04'0 0.0
2018-Aug-13 21:54N 40°38' W 074°04'0 0.0
2018-Aug-13 20:48N 40°38' W 074°04'0 0.0
2018-Aug-13 20:18N 40°38' W 074°04'0 0.0
2018-Aug-13 17:24N 40°38' W 074°04'0 0.0
2018-Aug-13 16:48N 40°38' W 074°04'0 0.0
2018-Aug-13 16:28N 40°38' W 074°04'0 0.0
2018-Aug-13 15:59N 40°38' W 074°04'0 0.0
2018-Aug-13 15:30N 40°38' W 074°04'0 0.0
2018-Aug-13 15:00N 40°38' W 074°04'0 0.0
2018-Aug-13 14:30N 40°38' W 074°04'0 0.0
2018-Aug-13 14:00N 40°38' W 074°04'0 0.0
2018-Aug-13 13:30N 40°38' W 074°04'0 0.0
2018-Aug-13 12:59N 40°38' W 074°04'0 0.0
2018-Aug-13 12:30N 40°38' W 074°04'0 0.0
2018-Aug-13 12:00N 40°38' W 074°04'0 0.0
2018-Aug-13 11:29N 40°38' W 074°04'0 0.0
2018-Aug-13 11:00N 40°38' W 074°04'0 0.0
2018-Aug-13 09:19N 40°38' W 074°04'0 0.0
2018-Aug-13 08:48N 40°38' W 074°04'0 0.0
2018-Aug-13 08:29N 40°38' W 074°04'0 0.0
2018-Aug-13 07:58N 40°38' W 074°04'0 0.0
2018-Aug-13 06:32N 40°38' W 074°04'0 0.0
2018-Aug-13 06:29N 40°38' W 074°04'0 0.0
2018-Aug-13 06:00N 40°38' W 074°04'0 0.0
2018-Aug-13 05:28N 40°38' W 074°04'0 0.0
2018-Aug-13 04:58N 40°38' W 074°04'0 0.0
2018-Aug-13 04:30N 40°38' W 074°04'0 0.0
2018-Aug-13 04:00N 40°38' W 074°04'0 0.0
2018-Aug-13 03:30N 40°38' W 074°04'0 0.0
2018-Aug-13 03:00N 40°38' W 074°04'0 0.0
2018-Aug-13 02:29N 40°38' W 074°04'0 0.0
2018-Aug-13 02:00N 40°38' W 074°04'0 0.0
2018-Aug-13 01:30N 40°38' W 074°04'0 0.0
2018-Aug-13 01:00N 40°38' W 074°04'0 0.0
2018-Aug-13 00:30N 40°38' W 074°04'0 0.0
2018-Aug-12 23:59N 40°38' W 074°04'4 1.6
2018-Aug-12 21:09N 40°34' W 074°01'210.8
2018-Aug-12 20:55N 40°36' W 074°03'2 0.1
2018-Aug-11 16:51N 40°38' W 074°04'0 0.0
2018-Aug-11 16:29N 40°38' W 074°04'510.7
2018-Aug-11 16:00N 40°43' W 074°02'5 9.2
2018-Aug-11 15:30N 40°38' W 074°04'1 0.0
2018-Aug-11 01:41N 40°38' W 074°04'0 0.0
2018-Aug-11 01:29N 40°38' W 074°04'0 0.0
2018-Aug-11 01:00N 40°38' W 074°04'0 0.0
2018-Aug-11 00:30N 40°38' W 074°04'0 0.4
2018-Aug-11 00:00N 40°38' W 074°04'0 0.4
2018-Aug-10 23:30N 40°38' W 074°04'0 0.0
2018-Aug-10 23:01N 40°38' W 074°04'0 0.0
2018-Aug-10 22:31N 40°38' W 074°04'0 0.0
2018-Aug-10 21:58N 40°38' W 074°04'0 0.0
2018-Aug-10 21:28N 40°38' W 074°04'0 0.0
2018-Aug-10 20:59N 40°38' W 074°04'0 0.0
2018-Aug-10 20:28N 40°38' W 074°04'0 0.0
2018-Aug-10 19:59N 40°38' W 074°04'0 0.0
2018-Aug-10 19:29N 40°38' W 074°04'0 0.0
2018-Aug-10 18:53N 40°38' W 074°04'0 0.0
2018-Aug-10 18:21N 40°38' W 074°04'0 0.0
2018-Aug-10 18:00N 40°38' W 074°04'0 0.0
2018-Aug-10 17:30N 40°38' W 074°04'0 0.0
2018-Aug-10 16:57N 40°38' W 074°04'0 0.0
2018-Aug-10 16:29N 40°38' W 074°04'3 4.5
2018-Aug-10 15:45N 40°34' W 074°04'937.5
2018-Aug-10 15:30N 40°42' W 073°59'  
Track history (hours):
 
Tides and Currents Weather Stations Pressure Air Temp Water Temp Dewpoint Dewpoint Depression Visibility Wind Speed Wind Dir Waves Ship Positions

Fdny Mo 34

Owner: NEW YORK CITY FIRE DEPT, BROOKLYN, NY. More information available from US FCC via Universal Licensing System.

Last reported at 2018-Aug-16 08:09 UTC. Time now 2018-Aug-16 08:45 UTC.
Position N 40°38' W 074°04'.

Length 11 m; draft 1 m.

Type: Law enforcement. MMSI: 367531750.

Date/timePositionNaut miles runAvg speedWind from/ knotsBaromVisibWave heightAir tempDewpointWater temp
2018-Aug-16 08:09N 40°38' W 074°04'0 0.0
2018-Aug-16 07:49N 40°38' W 074°04'0 0.0
2018-Aug-16 07:30N 40°38' W 074°04'0 0.0
2018-Aug-16 07:00N 40°38' W 074°04'0 0.0
2018-Aug-16 06:30N 40°38' W 074°04'0 0.0
2018-Aug-16 05:54N 40°38' W 074°04'0 0.0
2018-Aug-16 05:30N 40°38' W 074°04'0 0.0
2018-Aug-16 04:57N 40°38' W 074°04'0 0.0
2018-Aug-16 04:30N 40°38' W 074°04'0 0.0
2018-Aug-16 04:00N 40°38' W 074°04'0 0.0
2018-Aug-16 03:30N 40°38' W 074°04'0 0.0
2018-Aug-16 03:00N 40°38' W 074°04'0 0.0
2018-Aug-16 02:30N 40°38' W 074°04'0 0.0
2018-Aug-16 02:00N 40°38' W 074°04'0 0.0
2018-Aug-16 01:27N 40°38' W 074°04'0 0.0
2018-Aug-16 01:00N 40°38' W 074°04'0 0.0
2018-Aug-16 00:09N 40°38' W 074°04'0 0.0
2018-Aug-16 00:00N 40°38' W 074°04'0 0.0
2018-Aug-15 22:07N 40°38' W 074°04'0 0.0
2018-Aug-15 20:59N 40°38' W 074°04'0 0.0
2018-Aug-15 19:15N 40°38' W 074°04'0 1.1
2018-Aug-15 18:48N 40°38' W 074°04'514.6
2018-Aug-15 18:29N 40°43' W 074°03'1 1.7
2018-Aug-15 17:44N 40°43' W 074°01'1 4.1
2018-Aug-15 17:30N 40°42' W 074°01'5 8.6
2018-Aug-15 16:54N 40°38' W 074°04'0 0.0
2018-Aug-15 16:21N 40°38' W 074°04'0 0.0
2018-Aug-15 15:15N 40°38' W 074°04'0 0.0
2018-Aug-15 15:00N 40°38' W 074°04'0 0.0
2018-Aug-15 14:03N 40°38' W 074°04'0 0.1
2018-Aug-15 13:56N 40°38' W 074°04'0 0.0
2018-Aug-15 12:51N 40°38' W 074°04'2 1.7
2018-Aug-15 11:45N 40°36' W 074°03'2 1.0
2018-Aug-15 09:53N 40°38' W 074°04'0 0.0
2018-Aug-15 09:30N 40°38' W 074°04'0 0.0
2018-Aug-15 08:57N 40°38' W 074°04'0 0.0
2018-Aug-15 08:22N 40°38' W 074°04'0 0.0
2018-Aug-15 07:57N 40°38' W 074°04'0 0.0
2018-Aug-15 07:30N 40°38' W 074°04'0 0.0
2018-Aug-15 07:00N 40°38' W 074°04'0 0.0
2018-Aug-15 06:30N 40°38' W 074°04'0 0.0
2018-Aug-15 06:00N 40°38' W 074°04'0 0.0
2018-Aug-15 05:30N 40°38' W 074°04'0 0.0
2018-Aug-15 05:00N 40°38' W 074°04'0 0.0
2018-Aug-15 04:30N 40°38' W 074°04'0 0.0
2018-Aug-15 04:00N 40°38' W 074°04'0 0.0
2018-Aug-15 03:30N 40°38' W 074°04'0 0.0
2018-Aug-15 03:00N 40°38' W 074°04'0 0.0
2018-Aug-15 02:30N 40°38' W 074°04'0 0.0
2018-Aug-15 02:00N 40°38' W 074°04'0 0.0
2018-Aug-15 01:29N 40°38' W 074°04'0 0.0
2018-Aug-15 00:54N 40°38' W 074°04'0 0.0
2018-Aug-15 00:27N 40°38' W 074°04'0 0.0
2018-Aug-14 23:58N 40°38' W 074°04'0 0.0
2018-Aug-14 23:30N 40°38' W 074°04'0 0.0
2018-Aug-14 22:54N 40°38' W 074°04'0 0.0
2018-Aug-14 22:16N 40°38' W 074°04'0 0.0
2018-Aug-14 21:59N 40°38' W 074°04'0 0.0
2018-Aug-14 21:28N 40°38' W 074°04'0 0.0
2018-Aug-14 21:00N 40°38' W 074°04'0 0.0
2018-Aug-14 19:57N 40°38' W 074°04'0 0.0
2018-Aug-14 19:22N 40°38' W 074°04'0 0.0
2018-Aug-14 18:57N 40°38' W 074°04'0 0.0
2018-Aug-14 18:30N 40°38' W 074°04'0 0.0
2018-Aug-14 18:00N 40°38' W 074°04'0 0.0
2018-Aug-14 17:29N 40°38' W 074°04'0 0.0
2018-Aug-14 17:00N 40°38' W 074°04'0 0.0
2018-Aug-14 16:30N 40°38' W 074°04'0 0.0
2018-Aug-14 16:00N 40°38' W 074°04'0 0.0
2018-Aug-14 15:29N 40°38' W 074°04'0 0.0
2018-Aug-14 15:00N 40°38' W 074°04'0 0.0
2018-Aug-14 14:29N 40°38' W 074°04'0 0.0
2018-Aug-14 14:00N 40°38' W 074°04'0 0.0
2018-Aug-14 13:30N 40°38' W 074°04'0 0.0
2018-Aug-14 13:00N 40°38' W 074°04'0 0.0
2018-Aug-14 12:30N 40°38' W 074°04'0 0.0
2018-Aug-14 12:00N 40°38' W 074°04'0 0.0
2018-Aug-14 11:29N 40°38' W 074°04'0 0.0
2018-Aug-14 11:00N 40°38' W 074°04'0 0.0
2018-Aug-14 10:29N 40°38' W 074°04'0 0.0
2018-Aug-14 07:31N 40°38' W 074°04'0 0.0
2018-Aug-14 07:30N 40°38' W 074°04'0 0.0
2018-Aug-14 07:00N 40°38' W 074°04'0 0.0
2018-Aug-14 06:30N 40°38' W 074°04'0 0.0
2018-Aug-14 06:00N 40°38' W 074°04'0 0.0
2018-Aug-14 05:30N 40°38' W 074°04'0 0.0
2018-Aug-14 05:00N 40°38' W 074°04'0 0.0
2018-Aug-14 04:30N 40°38' W 074°04'0 0.0
2018-Aug-14 04:00N 40°38' W 074°04'0 0.0
2018-Aug-14 03:30N 40°38' W 074°04'0 0.0
2018-Aug-14 03:00N 40°38' W 074°04'0 0.0
2018-Aug-14 02:30N 40°38' W 074°04'0 0.0
2018-Aug-14 02:00N 40°38' W 074°04'0 0.0
2018-Aug-14 01:30N 40°38' W 074°04'0 0.0
2018-Aug-14 01:00N 40°38' W 074°04'0 0.0
2018-Aug-14 00:30N 40°38' W 074°04'0 0.0
2018-Aug-14 00:00N 40°38' W 074°04'0 0.0
2018-Aug-13 23:30N 40°38' W 074°04'0 0.0
2018-Aug-13 22:57N 40°38' W 074°04'0 0.0
2018-Aug-13 22:30N 40°38' W 074°04'0 0.0
2018-Aug-13 21:54N 40°38' W 074°04'0 0.0
2018-Aug-13 20:48N 40°38' W 074°04'0 0.0
2018-Aug-13 20:18N 40°38' W 074°04'0 0.0
2018-Aug-13 17:24N 40°38' W 074°04'0 0.0
2018-Aug-13 16:48N 40°38' W 074°04'0 0.0
2018-Aug-13 16:28N 40°38' W 074°04'0 0.0
2018-Aug-13 15:59N 40°38' W 074°04'0 0.0
2018-Aug-13 15:30N 40°38' W 074°04'0 0.0
2018-Aug-13 15:00N 40°38' W 074°04'0 0.0
2018-Aug-13 14:30N 40°38' W 074°04'0 0.0
2018-Aug-13 14:00N 40°38' W 074°04'0 0.0
2018-Aug-13 13:30N 40°38' W 074°04'0 0.0
2018-Aug-13 12:59N 40°38' W 074°04'0 0.0
2018-Aug-13 12:30N 40°38' W 074°04'0 0.0
2018-Aug-13 12:00N 40°38' W 074°04'0 0.0
2018-Aug-13 11:29N 40°38' W 074°04'0 0.0
2018-Aug-13 11:00N 40°38' W 074°04'0 0.0
2018-Aug-13 09:19N 40°38' W 074°04'0 0.0
2018-Aug-13 08:48N 40°38' W 074°04'0 0.0
2018-Aug-13 08:29N 40°38' W 074°04'0 0.0
2018-Aug-13 07:58N 40°38' W 074°04'0 0.0
2018-Aug-13 06:32N 40°38' W 074°04'0 0.0
2018-Aug-13 06:29N 40°38' W 074°04'0 0.0
2018-Aug-13 06:00N 40°38' W 074°04'0 0.0
2018-Aug-13 05:28N 40°38' W 074°04'0 0.0
2018-Aug-13 04:58N 40°38' W 074°04'0 0.0
2018-Aug-13 04:30N 40°38' W 074°04'0 0.0
2018-Aug-13 04:00N 40°38' W 074°04'0 0.0
2018-Aug-13 03:30N 40°38' W 074°04'0 0.0
2018-Aug-13 03:00N 40°38' W 074°04'0 0.0
2018-Aug-13 02:29N 40°38' W 074°04'0 0.0
2018-Aug-13 02:00N 40°38' W 074°04'0 0.0
2018-Aug-13 01:30N 40°38' W 074°04'0 0.0
2018-Aug-13 01:00N 40°38' W 074°04'0 0.0
2018-Aug-13 00:30N 40°38' W 074°04'0 0.0
2018-Aug-12 23:59N 40°38' W 074°04'4 1.6
2018-Aug-12 21:09N 40°34' W 074°01'210.8
2018-Aug-12 20:55N 40°36' W 074°03'2 0.1
2018-Aug-11 16:51N 40°38' W 074°04'0 0.0
2018-Aug-11 16:29N 40°38' W 074°04'510.7
2018-Aug-11 16:00N 40°43' W 074°02'5 9.2
2018-Aug-11 15:30N 40°38' W 074°04'1 0.0
2018-Aug-11 01:41N 40°38' W 074°04'0 0.0
2018-Aug-11 01:29N 40°38' W 074°04'0 0.0
2018-Aug-11 01:00N 40°38' W 074°04'0 0.0
2018-Aug-11 00:30N 40°38' W 074°04'0 0.4
2018-Aug-11 00:00N 40°38' W 074°04'0 0.4
2018-Aug-10 23:30N 40°38' W 074°04'0 0.0
2018-Aug-10 23:01N 40°38' W 074°04'0 0.0
2018-Aug-10 22:31N 40°38' W 074°04'0 0.0
2018-Aug-10 21:58N 40°38' W 074°04'0 0.0
2018-Aug-10 21:28N 40°38' W 074°04'0 0.0
2018-Aug-10 20:59N 40°38' W 074°04'0 0.0
2018-Aug-10 20:28N 40°38' W 074°04'0 0.0
2018-Aug-10 19:59N 40°38' W 074°04'0 0.0
2018-Aug-10 19:29N 40°38' W 074°04'0 0.0
2018-Aug-10 18:53N 40°38' W 074°04'0 0.0
2018-Aug-10 18:21N 40°38' W 074°04'0 0.0
2018-Aug-10 18:00N 40°38' W 074°04'0 0.0
2018-Aug-10 17:30N 40°38' W 074°04'0 0.0
2018-Aug-10 16:57N 40°38' W 074°04'0 0.0
2018-Aug-10 16:29N 40°38' W 074°04'3 4.5
2018-Aug-10 15:45N 40°34' W 074°04'937.5
2018-Aug-10 15:30N 40°42' W 073°59'  

Dump ship's entire track history